Latest Weather Observations for Loxton

IDS60801

Issued at 11:51 pm CST Sunday 27 September 2020 (issued every 10 minutes, with the page automatically refreshed every 10 minutes)

About weather observations | Map of weather stations | Latest weather observations for SA | Other Formats
Station Details ID: 024024 Name: LOXTON RESEARCH CENTRE Lat: -34.44 Lon: 140.60 Height: 30.1 m
Data from the previous 72 hours. | See also: Recent months at Loxton
Date/Time
CST
Temp
°C
App
Temp
°C
Dew
Point
°C
Rel
Hum
%
Delta-T
°C
Wind Press
QNH
hPa
Press
MSL
hPa
Rain since
9am
mm
Dir  Spd
km/h
Gust
km/h
Spd
kts
Gust
kts
27/11:30pm 7.6 4.8 5.1 84 1.1 SE 9 11 5 6 1026.0 1026.0 0.2
27/11:00pm 7.8 5.0 5.1 83 1.2 SE 9 11 5 6 1026.3 1026.3 0.2
27/10:30pm 8.2 5.0 5.3 82 1.3 SE 11 13 6 7 1026.5 1026.5 0.2
27/10:00pm 8.5 5.0 5.4 81 1.4 SE 13 15 7 8 1026.5 1026.5 0.2
27/09:30pm 8.4 6.1 5.5 82 1.3 SE 7 9 4 5 1026.7 1026.7 0.2
27/09:00pm 8.4 5.6 5.3 81 1.4 SE 9 13 5 7 1026.9 1026.9 0.2
27/08:30pm 10.0 7.3 5.6 74 2.0 SE 9 9 5 5 1027.0 1027.0 0.2
27/08:00pm 10.4 7.6 5.3 70 2.3 SE 9 11 5 6 1026.5 1026.5 0.2
27/07:30pm 11.3 8.7 5.9 69 2.5 SSE 9 11 5 6 1026.3 1026.3 0.2
27/07:00pm 12.5 9.4 5.4 62 3.3 SSE 11 13 6 7 1026.0 1026.0 0.2
27/06:30pm 13.5 10.6 4.8 55 4.0 SSE 9 11 5 6 1025.7 1025.7 0.2
27/06:00pm 15.0 12.4 4.4 49 4.9 SE 7 7 4 4 1025.4 1025.4 0.2
27/05:30pm 16.4 13.2 3.2 41 6.0 ESE 9 17 5 9 1025.1 1025.1 0.2
27/05:00pm 17.1 14.0 3.7 41 6.2 ESE 9 17 5 9 1024.7 1024.7 0.2
27/04:30pm 17.1 13.6 3.4 40 6.3 ESE 11 17 6 9 1024.6 1024.6 0.2
27/04:00pm 17.3 14.1 3.1 38 6.5 SE 9 17 5 9 1024.6 1024.6 0.2
27/03:30pm 17.7 13.7 3.1 37 6.7 SSE 13 20 7 11 1024.6 1024.6 0.2
27/03:00pm 16.8 13.5 2.6 38 6.4 S 9 15 5 8 1024.9 1024.9 0.2
27/02:30pm 17.5 14.2 2.5 36 6.8 E 9 15 5 8 1025.1 1025.1 0.2
27/02:00pm 16.3 12.3 3.1 41 6.0 ESE 13 20 7 11 1025.2 1025.2 0.2
27/01:30pm 16.7 13.9 3.4 41 6.1 NNW 7 15 4 8 1025.5 1025.5 0.2
27/01:00pm 16.2 12.6 2.9 41 6.0 S 11 20 6 11 1025.9 1025.9 0.2
27/12:30pm 15.6 12.8 3.2 43 5.6 ENE 7 17 4 9 1026.3 1026.3 0.2
27/12:00pm 15.2 11.8 4.1 47 5.1 ESE 11 20 6 11 1026.6 1026.6 0.2
27/11:30am 14.8 10.5 3.5 46 5.1 SSW 15 24 8 13 1027.1 1027.1 0.2
27/11:00am 14.4 11.4 4.1 50 4.7 SSE 9 17 5 9 1027.5 1027.5 0.2
27/10:30am 14.7 11.6 3.4 46 5.1 ESE 9 17 5 9 1027.8 1027.8 0.0
27/10:00am 13.6 10.9 3.8 51 4.4 SW 7 13 4 7 1028.0 1028.0 0.0
27/09:30am 13.1 9.3 4.0 54 4.1 S 13 20 7 11 1028.1 1028.1 0.0
27/09:00am 12.3 10.1 6.1 66 2.9 SW 7 13 4 7 1028.1 1028.1 0.2
27/08:30am 10.6 8.9 6.0 73 2.1 SW 4 9 2 5 1028.2 1028.2 -
27/08:00am 8.6 6.3 5.5 81 1.4 WNW 7 11 4 6 1028.1 1028.1 -
27/07:30am 6.6 4.1 4.7 88 0.8 WNW 7 11 4 6 1027.7 1027.7 -
27/07:00am 5.1 2.1 4.1 93 0.4 WNW 9 11 5 6 1027.3 1027.3 -
27/06:30am 4.3 1.2 3.6 95 0.3 WNW 9 11 5 6 1026.7 1026.7 -
27/06:00am 0.9 -1.8 0.3 96 0.2 WSW 4 7 2 4 1026.1 1026.1 -
27/05:30am 1.0 -1.3 0.7 98 0.1 WSW 2 6 1 3 1025.8 1025.8 -
27/05:00am 1.4 -0.4 0.9 96 0.2 CALM 0 0 0 0 1025.3 1025.3 -
27/04:30am 2.2 0.4 1.4 94 0.3 CALM 0 0 0 0 1024.9 1024.9 -
27/04:00am 2.2 -0.8 1.7 96 0.2 WSW 7 9 4 5 1024.6 1024.6 -
27/03:30am 2.8 1.1 2.0 94 0.3 CALM 0 0 0 0 1024.3 1024.3 -
27/03:00am 4.7 2.2 3.7 93 0.4 SW 6 9 3 5 1024.2 1024.2 0.0
27/02:30am 5.7 2.7 4.3 91 0.6 SW 9 13 5 7 1024.3 1024.3 -
27/02:00am 5.7 1.9 4.0 89 0.7 SSW 13 20 7 11 1024.3 1024.3 -
27/01:30am 3.9 0.6 2.7 92 0.5 SW 9 11 5 6 1024.5 1024.5 -
27/01:00am 2.9 0.9 2.1 94 0.3 WSW 2 7 1 4 1024.6 1024.6 -
27/12:30am 3.6 1.3 2.6 93 0.4 WSW 4 7 2 4 1024.7 1024.7 -
27/12:00am 5.0 2.5 4.0 93 0.4 WSW 6 7 3 4 1024.7 1024.7 -
 
Date/Time
CST
Temp
°C
App
Temp
°C
Dew
Point
°C
Rel
Hum
%
Delta-T
°C
Wind Press
QNH
hPa
Press
MSL
hPa
Rain since
9am
mm
Dir  Spd
km/h
Gust
km/h
Spd
kts
Gust
kts
26/11:30pm 5.8 2.9 4.4 91 0.6 SW 9 13 5 7 1024.6 1024.6 -
26/11:00pm 6.1 3.1 4.2 88 0.8 SSW 9 11 5 6 1024.4 1024.4 -
26/10:30pm 6.9 3.6 4.6 85 1.0 SW 11 15 6 8 1024.4 1024.4 -
26/10:00pm 7.3 4.0 4.3 81 1.3 SW 11 15 6 8 1024.5 1024.5 -
26/09:30pm 7.7 4.0 4.2 78 1.5 SW 13 17 7 9 1024.5 1024.5 -
26/09:00pm 8.4 4.6 4.0 74 1.9 SW 13 17 7 9 1024.3 1024.3 0.0
26/08:30pm 8.6 4.8 3.7 71 2.1 SW 13 19 7 10 1024.2 1024.2 -
26/08:00pm 9.4 5.5 3.4 66 2.6 SW 13 17 7 9 1024.0 1024.0 -
26/07:30pm 9.7 6.1 3.2 64 2.8 SW 11 15 6 8 1023.5 1023.5 -
26/07:00pm 10.3 7.1 3.1 61 3.1 SW 9 11 5 6 1023.0 1023.0 -
26/06:30pm 11.8 7.4 2.5 53 4.0 SW 15 20 8 11 1022.6 1022.6 -
26/06:00pm 13.0 8.2 2.5 49 4.6 SW 17 24 9 13 1022.1 1022.1 -
26/05:30pm 14.2 8.7 1.8 43 5.4 SW 20 28 11 15 1021.6 1021.6 -
26/05:00pm 15.1 9.5 0.9 38 6.1 SW 20 28 11 15 1021.2 1021.2 -
26/04:30pm 15.2 9.3 1.7 40 5.9 SW 22 32 12 17 1021.0 1021.0 -
26/04:00pm 15.4 9.5 2.0 40 5.9 WSW 22 33 12 18 1020.8 1020.8 -
26/03:30pm 15.3 9.2 0.6 36 6.3 SW 22 32 12 17 1020.7 1020.7 -
26/03:00pm 15.4 9.8 -0.3 34 6.6 SW 19 30 10 16 1020.7 1020.7 -
26/02:30pm 15.5 10.5 3.7 45 5.4 SSW 19 30 10 16 1020.9 1020.9 -
26/02:00pm 15.2 10.5 0.7 37 6.2 SW 15 24 8 13 1020.9 1020.9 -
26/01:30pm 14.1 10.8 4.6 52 4.4 WSW 11 17 6 9 1021.2 1021.2 0.2
26/01:00pm 13.8 7.8 3.6 50 4.6 SSW 24 35 13 19 1021.4 1021.4 0.2
26/12:30pm 13.9 10.8 5.6 57 3.9 WSW 11 17 6 9 1021.5 1021.5 0.2
26/12:00pm 14.4 9.8 3.6 48 4.9 W 17 26 9 14 1021.7 1021.7 0.2
26/11:30am 13.4 8.2 3.3 50 4.5 W 20 28 11 15 1022.0 1022.0 0.2
26/11:00am 12.8 7.0 2.5 49 4.5 SW 22 35 12 19 1022.1 1022.1 0.2
26/10:30am 13.3 7.9 2.6 48 4.7 SW 20 37 11 20 1021.9 1021.9 0.2
26/10:00am 12.1 7.0 3.2 54 3.9 SW 19 28 10 15 1022.0 1022.0 0.2
26/09:30am 12.0 7.1 3.9 57 3.6 WSW 19 30 10 16 1022.1 1022.1 0.0
26/09:00am 11.7 7.4 5.1 64 3.0 WSW 17 28 9 15 1022.0 1022.0 0.6
26/08:30am 10.2 5.5 5.1 70 2.3 WSW 19 24 10 13 1021.9 1021.9 0.6
26/08:00am 8.9 4.5 4.8 75 1.8 WSW 17 22 9 12 1021.5 1021.5 0.6
26/07:30am 8.0 4.3 4.6 79 1.5 WSW 13 19 7 10 1021.1 1021.1 0.6
26/07:00am 7.0 2.9 4.2 82 1.2 WSW 15 22 8 12 1020.5 1020.5 0.6
26/06:30am 6.2 2.1 4.3 88 0.8 W 15 20 8 11 1019.9 1019.9 0.6
26/06:00am 5.6 1.5 4.2 91 0.6 WSW 15 20 8 11 1019.4 1019.4 0.6
26/05:30am 5.8 2.1 4.4 91 0.6 W 13 17 7 9 1018.8 1018.8 0.6
26/05:00am 5.9 1.5 4.5 91 0.6 W 17 26 9 14 1018.5 1018.5 0.6
26/04:30am 5.9 1.8 4.3 89 0.7 W 15 20 8 11 1018.0 1018.0 0.6
26/04:00am 5.5 2.1 4.1 91 0.6 W 11 15 6 8 1017.6 1017.6 0.6
26/03:30am 5.5 1.8 4.3 92 0.5 W 13 20 7 11 1017.5 1017.5 0.6
26/03:00am 6.0 2.3 4.4 89 0.7 W 13 19 7 10 1017.5 1017.5 0.6
26/02:30am 6.3 3.0 4.4 88 0.8 WSW 11 20 6 11 1017.6 1017.6 0.6
26/02:00am 6.1 2.4 4.5 89 0.7 W 13 20 7 11 1017.4 1017.4 0.6
26/01:30am 6.4 1.9 4.1 85 1.0 WSW 17 26 9 14 1017.3 1017.3 0.6
26/01:00am 6.7 2.6 4.4 85 1.0 W 15 20 8 11 1017.3 1017.3 0.6
26/12:30am 6.9 2.8 4.6 85 1.0 W 15 20 8 11 1017.1 1017.1 0.6
26/12:00am 6.8 2.7 4.2 83 1.1 W 15 20 8 11 1017.1 1017.1 0.6
 
Date/Time
CST
Temp
°C
App
Temp
°C
Dew
Point
°C
Rel
Hum
%
Delta-T
°C
Wind Press
QNH
hPa
Press
MSL
hPa
Rain since
9am
mm
Dir  Spd
km/h
Gust
km/h
Spd
kts
Gust
kts
25/11:30pm 7.4 2.5 4.2 80 1.4 W 19 26 10 14 1017.0 1017.0 0.6
25/11:00pm 7.3 3.2 4.3 81 1.3 W 15 20 8 11 1016.8 1016.8 0.6
25/10:30pm 7.6 2.6 4.4 80 1.4 W 20 28 11 15 1016.6 1016.6 0.6
25/10:00pm 7.9 3.5 4.5 79 1.5 W 17 26 9 14 1016.3 1016.3 0.6
25/09:30pm 8.5 4.0 4.4 75 1.8 W 17 26 9 14 1016.2 1016.2 0.6
25/09:00pm 8.9 4.0 4.1 72 2.1 W 19 32 10 17 1016.0 1016.0 0.6
25/08:30pm 9.2 3.3 3.7 68 2.4 W 24 44 13 24 1015.7 1015.7 0.6
25/08:00pm 9.3 3.7 3.3 66 2.6 WSW 22 30 12 16 1015.3 1015.3 0.6
25/07:30pm 9.2 4.9 3.1 65 2.6 W 15 20 8 11 1015.1 1015.1 0.6
25/07:00pm 9.1 4.6 4.1 71 2.2 WSW 17 24 9 13 1014.6 1014.6 0.6
25/06:30pm 10.0 4.0 3.3 63 2.9 SW 24 35 13 19 1014.1 1014.0 0.6
25/06:00pm 10.7 4.5 2.0 55 3.7 WSW 24 37 13 20 1013.6 1013.5 0.6
25/05:30pm 11.4 4.8 2.3 53 3.9 SW 26 35 14 19 1013.1 1013.0 0.6
25/05:02pm 12.3 4.0 -0.4 41 5.2 SW 33 52 18 28 1012.3 1012.3 0.6
25/05:00pm 12.3 3.6 -0.8 40 5.3 SW 35 52 19 28 1012.3 1012.3 0.6
25/04:30pm 12.4 4.2 0.1 43 5.1 WSW 33 52 18 28 1011.7 1011.7 0.6
25/04:21pm 12.8 5.4 -1.0 38 5.6 WSW 28 48 15 26 1011.4 1011.4 0.6
25/04:00pm 12.1 6.0 3.0 53 4.0 WSW 24 41 13 22 1011.2 1011.2 0.6
25/03:30pm 11.0 4.5 2.4 55 3.7 SW 26 39 14 21 1011.2 1011.2 0.6
25/03:00pm 11.5 5.8 3.1 56 3.7 SW 22 37 12 20 1010.9 1010.9 0.6
25/02:39pm 11.7 4.8 2.8 54 3.9 WSW 28 54 15 29 1010.8 1010.8 0.6
25/02:30pm 11.9 6.9 4.4 60 3.4 WSW 20 30 11 16 1010.8 1010.8 0.6
25/02:01pm 10.4 3.0 4.9 69 2.5 SW 33 52 18 28 1010.6 1010.6 0.6
25/02:00pm 10.2 2.4 5.1 70 2.3 SW 35 52 19 28 1010.6 1010.6 0.6
25/01:31pm 13.2 5.4 1.6 45 5.0 SW 32 50 17 27 1010.2 1010.2 0.6
25/01:30pm 13.6 5.6 1.9 45 5.1 SW 33 50 18 27 1010.1 1010.1 0.6
25/01:09pm 12.7 4.7 1.5 46 4.8 SW 33 52 18 28 1010.1 1010.1 0.6
25/01:00pm 12.2 3.4 1.4 47 4.6 SW 37 50 20 27 1009.9 1009.9 0.6
25/12:30pm 11.7 3.7 3.6 57 3.6 SW 35 56 19 30 1010.0 1010.0 0.6
25/12:08pm 9.8 2.4 4.2 68 2.5 SW 32 50 17 27 1009.7 1009.7 0.6
25/12:00pm 9.2 1.9 4.7 73 2.0 SW 32 44 17 24 1009.8 1009.8 0.6
25/11:30am 9.5 2.3 5.1 74 2.0 SW 32 65 17 35 1009.7 1009.7 0.2
25/11:03am 11.7 3.7 1.9 51 4.2 SW 33 56 18 30 1009.1 1009.1 0.0
25/11:00am 11.9 4.0 2.5 52 4.1 SW 33 50 18 27 1009.1 1009.1 0.0
25/10:30am 10.8 3.7 3.3 60 3.3 WSW 30 50 16 27 1008.7 1008.7 0.0
25/10:25am 10.7 3.1 3.1 59 3.3 WSW 32 50 17 27 1008.7 1008.7 0.0
25/10:00am 10.7 3.9 2.9 58 3.4 WSW 28 43 15 23 1008.6 1008.6 0.0
25/09:40am 9.9 2.7 3.2 63 2.9 W 30 48 16 26 1008.5 1008.5 0.0
25/09:30am 9.8 3.0 3.1 63 2.9 W 28 41 15 22 1008.4 1008.4 0.0
25/09:00am 9.2 2.4 2.9 65 2.7 W 28 43 15 23 1008.2 1008.2 4.2
25/08:30am 9.4 3.0 3.1 65 2.7 W 26 35 14 19 1008.1 1008.1 4.2
25/08:00am 8.8 2.8 3.2 68 2.4 W 24 41 13 22 1007.9 1007.9 4.2
25/07:30am 7.9 2.7 3.5 74 1.9 WNW 20 30 11 16 1007.7 1007.7 4.2
25/07:00am 7.1 2.5 3.6 78 1.5 WNW 17 26 9 14 1007.5 1007.5 4.2
25/06:30am 6.2 1.9 3.4 82 1.2 WNW 15 20 8 11 1007.2 1007.2 4.2
25/06:00am 6.0 1.3 3.4 83 1.1 WNW 17 22 9 12 1007.1 1007.1 4.2
25/05:30am 6.1 2.2 3.5 83 1.1 WNW 13 20 7 11 1006.6 1006.6 4.2
25/05:00am 6.5 1.9 3.9 83 1.1 WNW 17 20 9 11 1006.5 1006.5 4.2
25/04:30am 6.8 2.3 4.3 84 1.1 WNW 17 24 9 13 1006.4 1006.4 4.2
25/04:00am 6.9 2.9 4.9 87 0.9 WNW 15 20 8 11 1006.1 1006.1 4.2
25/03:30am 7.4 2.9 4.4 81 1.3 WNW 17 26 9 14 1006.3 1006.3 4.2
25/03:00am 7.5 3.0 4.3 80 1.4 WNW 17 26 9 14 1006.5 1006.5 4.2
25/02:30am 7.5 3.8 4.5 81 1.3 WNW 13 19 7 10 1006.4 1006.4 4.2
25/02:00am 7.8 4.5 4.6 80 1.4 W 11 15 6 8 1006.5 1006.5 4.2
25/01:30am 8.1 3.3 4.7 79 1.5 WNW 19 28 10 15 1007.9 1007.9 4.2
25/01:00am 8.2 3.9 5.1 81 1.4 WNW 17 24 9 13 1008.1 1008.1 4.2
25/12:30am 8.5 5.6 6.6 88 0.9 W 11 13 6 7 1008.4 1008.4 4.0
25/12:00am 8.7 6.2 6.5 86 1.0 W 9 17 5 9 1008.5 1008.5 4.0

Other formats

Comma delimited format used in spreadsheet applications
http://www.bom.gov.au/fwo/IDS60801/IDS60801.94682.axf

JavaScript Object Notation format (JSON) in row-major order
http://www.bom.gov.au/fwo/IDS60801/IDS60801.94682.json

Data quality

Most of these data are generated automatically and are frequently updated. Quality checks on data are not normally performed. It is possible for incorrect values to appear. Refer to information at About Latest Weather Observations and please check the disclaimer before using these data.